sensor_id;sensor_type;location;lat;lon;timestamp;temperature;humidity
5639;DHT22;2841;44.526;11.360;2022-12-11T00:02:28;7.60;99.90
5639;DHT22;2841;44.526;11.360;2022-12-11T00:04:55;7.60;99.90
5639;DHT22;2841;44.526;11.360;2022-12-11T00:07:22;7.60;99.90
5639;DHT22;2841;44.526;11.360;2022-12-11T00:09:50;7.60;99.90
5639;DHT22;2841;44.526;11.360;2022-12-11T00:12:16;7.60;99.90
5639;DHT22;2841;44.526;11.360;2022-12-11T00:14:45;7.60;99.90
5639;DHT22;2841;44.526;11.360;2022-12-11T00:17:12;7.60;99.90
5639;DHT22;2841;44.526;11.360;2022-12-11T00:19:39;7.60;99.90
5639;DHT22;2841;44.526;11.360;2022-12-11T00:22:06;7.60;99.90
5639;DHT22;2841;44.526;11.360;2022-12-11T00:24:34;7.70;99.90
5639;DHT22;2841;44.526;11.360;2022-12-11T00:27:01;7.70;99.90
5639;DHT22;2841;44.526;11.360;2022-12-11T00:29:28;7.70;99.90
5639;DHT22;2841;44.526;11.360;2022-12-11T00:31:56;7.80;99.90
5639;DHT22;2841;44.526;11.360;2022-12-11T00:34:23;7.80;99.90
5639;DHT22;2841;44.526;11.360;2022-12-11T00:36:50;7.80;99.90
5639;DHT22;2841;44.526;11.360;2022-12-11T00:39:18;7.80;99.90
5639;DHT22;2841;44.526;11.360;2022-12-11T00:41:45;7.80;99.90
5639;DHT22;2841;44.526;11.360;2022-12-11T00:44:12;7.80;99.90
5639;DHT22;2841;44.526;11.360;2022-12-11T00:46:39;7.80;99.90
5639;DHT22;2841;44.526;11.360;2022-12-11T00:49:07;7.80;99.90
5639;DHT22;2841;44.526;11.360;2022-12-11T00:51:34;7.80;99.90
5639;DHT22;2841;44.526;11.360;2022-12-11T00:54:01;7.80;99.90
5639;DHT22;2841;44.526;11.360;2022-12-11T00:56:28;7.80;99.90
5639;DHT22;2841;44.526;11.360;2022-12-11T00:58:55;7.90;99.90
5639;DHT22;2841;44.526;11.360;2022-12-11T01:01:24;7.90;99.90
5639;DHT22;2841;44.526;11.360;2022-12-11T01:03:52;7.90;99.90
5639;DHT22;2841;44.526;11.360;2022-12-11T01:06:22;7.90;99.90
5639;DHT22;2841;44.526;11.360;2022-12-11T01:08:49;7.90;99.90
5639;DHT22;2841;44.526;11.360;2022-12-11T01:11:38;7.90;99.90
5639;DHT22;2841;44.526;11.360;2022-12-11T01:14:04;7.90;99.90
5639;DHT22;2841;44.526;11.360;2022-12-11T01:16:31;7.90;99.90
5639;DHT22;2841;44.526;11.360;2022-12-11T01:18:58;8.00;99.90
5639;DHT22;2841;44.526;11.360;2022-12-11T01:21:27;8.00;99.90
5639;DHT22;2841;44.526;11.360;2022-12-11T01:23:54;7.90;99.90
5639;DHT22;2841;44.526;11.360;2022-12-11T01:26:21;7.90;99.90
5639;DHT22;2841;44.526;11.360;2022-12-11T01:28:49;7.90;99.90
5639;DHT22;2841;44.526;11.360;2022-12-11T01:31:17;7.90;99.90
5639;DHT22;2841;44.526;11.360;2022-12-11T01:33:44;7.90;99.90
5639;DHT22;2841;44.526;11.360;2022-12-11T01:36:13;7.90;99.90
5639;DHT22;2841;44.526;11.360;2022-12-11T01:38:42;7.90;99.90
5639;DHT22;2841;44.526;11.360;2022-12-11T01:41:09;7.90;99.90
5639;DHT22;2841;44.526;11.360;2022-12-11T01:43:54;7.90;99.90
5639;DHT22;2841;44.526;11.360;2022-12-11T01:46:22;7.90;99.90
5639;DHT22;2841;44.526;11.360;2022-12-11T01:48:49;7.90;99.90
5639;DHT22;2841;44.526;11.360;2022-12-11T01:51:16;7.90;99.90
5639;DHT22;2841;44.526;11.360;2022-12-11T01:53:48;7.80;99.90
5639;DHT22;2841;44.526;11.360;2022-12-11T01:56:17;7.80;99.90
5639;DHT22;2841;44.526;11.360;2022-12-11T01:58:48;7.80;99.90
5639;DHT22;2841;44.526;11.360;2022-12-11T02:01:21;7.80;99.90
5639;DHT22;2841;44.526;11.360;2022-12-11T02:03:51;7.80;99.90
5639;DHT22;2841;44.526;11.360;2022-12-11T02:06:30;7.70;99.90
5639;DHT22;2841;44.526;11.360;2022-12-11T02:08:59;7.70;99.90
5639;DHT22;2841;44.526;11.360;2022-12-11T02:11:32;7.70;99.90
5639;DHT22;2841;44.526;11.360;2022-12-11T02:14:05;7.80;99.90
5639;DHT22;2841;44.526;11.360;2022-12-11T02:16:41;7.80;99.90
5639;DHT22;2841;44.526;11.360;2022-12-11T02:19:21;7.80;99.90
5639;DHT22;2841;44.526;11.360;2022-12-11T02:21:55;7.80;99.90
5639;DHT22;2841;44.526;11.360;2022-12-11T02:24:34;7.80;99.90
5639;DHT22;2841;44.526;11.360;2022-12-11T02:27:19;7.80;99.90
5639;DHT22;2841;44.526;11.360;2022-12-11T02:29:52;7.80;99.90
5639;DHT22;2841;44.526;11.360;2022-12-11T02:32:24;7.80;99.90
5639;DHT22;2841;44.526;11.360;2022-12-11T02:34:56;7.80;99.90
5639;DHT22;2841;44.526;11.360;2022-12-11T02:37:28;7.80;99.90
5639;DHT22;2841;44.526;11.360;2022-12-11T02:39:56;7.80;99.90
5639;DHT22;2841;44.526;11.360;2022-12-11T02:42:27;7.80;99.90
5639;DHT22;2841;44.526;11.360;2022-12-11T02:44:58;7.80;99.90
5639;DHT22;2841;44.526;11.360;2022-12-11T02:47:28;7.80;99.90
5639;DHT22;2841;44.526;11.360;2022-12-11T02:49:57;7.80;99.90
5639;DHT22;2841;44.526;11.360;2022-12-11T02:52:26;7.90;99.90
5639;DHT22;2841;44.526;11.360;2022-12-11T02:54:55;7.90;99.90
5639;DHT22;2841;44.526;11.360;2022-12-11T02:57:27;7.90;99.90
5639;DHT22;2841;44.526;11.360;2022-12-11T02:59:58;7.90;99.90
5639;DHT22;2841;44.526;11.360;2022-12-11T03:02:25;8.00;99.90
5639;DHT22;2841;44.526;11.360;2022-12-11T03:04:53;8.00;99.90
5639;DHT22;2841;44.526;11.360;2022-12-11T03:07:25;8.00;99.90
5639;DHT22;2841;44.526;11.360;2022-12-11T03:09:53;8.00;99.90
5639;DHT22;2841;44.526;11.360;2022-12-11T03:12:24;8.00;99.90
5639;DHT22;2841;44.526;11.360;2022-12-11T03:14:53;8.00;99.90
5639;DHT22;2841;44.526;11.360;2022-12-11T03:17:25;8.00;99.90
5639;DHT22;2841;44.526;11.360;2022-12-11T03:20:02;8.00;99.90
5639;DHT22;2841;44.526;11.360;2022-12-11T03:22:38;8.00;99.90
5639;DHT22;2841;44.526;11.360;2022-12-11T03:25:08;8.00;99.90
5639;DHT22;2841;44.526;11.360;2022-12-11T03:27:40;8.00;99.90
5639;DHT22;2841;44.526;11.360;2022-12-11T03:30:11;8.00;99.90
5639;DHT22;2841;44.526;11.360;2022-12-11T03:32:45;8.00;99.90
5639;DHT22;2841;44.526;11.360;2022-12-11T03:35:18;8.00;99.90
5639;DHT22;2841;44.526;11.360;2022-12-11T03:37:47;8.10;99.90
5639;DHT22;2841;44.526;11.360;2022-12-11T03:40:19;8.10;99.90
5639;DHT22;2841;44.526;11.360;2022-12-11T03:42:51;8.10;99.90
5639;DHT22;2841;44.526;11.360;2022-12-11T03:45:19;8.10;99.90
5639;DHT22;2841;44.526;11.360;2022-12-11T03:47:50;8.10;99.90
5639;DHT22;2841;44.526;11.360;2022-12-11T03:50:19;8.10;99.90
5639;DHT22;2841;44.526;11.360;2022-12-11T03:52:48;8.10;99.90
5639;DHT22;2841;44.526;11.360;2022-12-11T03:55:16;8.10;99.90
5639;DHT22;2841;44.526;11.360;2022-12-11T03:57:44;8.10;99.90
5639;DHT22;2841;44.526;11.360;2022-12-11T04:00:14;8.10;99.90
5639;DHT22;2841;44.526;11.360;2022-12-11T04:02:42;8.10;99.90
5639;DHT22;2841;44.526;11.360;2022-12-11T04:05:11;8.00;99.90
5639;DHT22;2841;44.526;11.360;2022-12-11T04:07:38;8.00;99.90
5639;DHT22;2841;44.526;11.360;2022-12-11T04:10:05;7.90;99.90
5639;DHT22;2841;44.526;11.360;2022-12-11T04:12:32;7.90;99.90
5639;DHT22;2841;44.526;11.360;2022-12-11T04:14:59;7.80;99.90
5639;DHT22;2841;44.526;11.360;2022-12-11T04:17:29;7.80;99.90
5639;DHT22;2841;44.526;11.360;2022-12-11T04:20:29;7.70;99.90
5639;DHT22;2841;44.526;11.360;2022-12-11T04:23:15;7.70;99.90
5639;DHT22;2841;44.526;11.360;2022-12-11T04:26:04;7.70;99.90
5639;DHT22;2841;44.526;11.360;2022-12-11T04:28:31;7.70;99.90
5639;DHT22;2841;44.526;11.360;2022-12-11T04:30:58;7.70;99.90
5639;DHT22;2841;44.526;11.360;2022-12-11T04:33:25;7.70;99.90
5639;DHT22;2841;44.526;11.360;2022-12-11T04:35:55;7.70;99.90
5639;DHT22;2841;44.526;11.360;2022-12-11T04:38:22;7.60;99.90
5639;DHT22;2841;44.526;11.360;2022-12-11T04:40:56;7.60;99.90
5639;DHT22;2841;44.526;11.360;2022-12-11T04:43:23;7.50;99.90
5639;DHT22;2841;44.526;11.360;2022-12-11T04:45:58;7.50;99.90
5639;DHT22;2841;44.526;11.360;2022-12-11T04:48:25;7.50;99.90
5639;DHT22;2841;44.526;11.360;2022-12-11T04:50:54;7.50;99.90
5639;DHT22;2841;44.526;11.360;2022-12-11T04:53:21;7.40;99.90
5639;DHT22;2841;44.526;11.360;2022-12-11T04:55:48;7.40;99.90
5639;DHT22;2841;44.526;11.360;2022-12-11T04:58:15;7.40;99.90
5639;DHT22;2841;44.526;11.360;2022-12-11T05:00:42;7.40;99.90
5639;DHT22;2841;44.526;11.360;2022-12-11T05:03:09;7.40;99.90
5639;DHT22;2841;44.526;11.360;2022-12-11T05:05:37;7.40;99.90
5639;DHT22;2841;44.526;11.360;2022-12-11T05:08:05;7.30;99.90
5639;DHT22;2841;44.526;11.360;2022-12-11T05:10:33;7.30;99.90
5639;DHT22;2841;44.526;11.360;2022-12-11T05:13:00;7.30;99.90
5639;DHT22;2841;44.526;11.360;2022-12-11T05:15:27;7.20;99.90
5639;DHT22;2841;44.526;11.360;2022-12-11T05:17:54;7.20;99.90
5639;DHT22;2841;44.526;11.360;2022-12-11T05:20:21;7.20;99.90
5639;DHT22;2841;44.526;11.360;2022-12-11T05:22:48;7.20;99.90
5639;DHT22;2841;44.526;11.360;2022-12-11T05:25:17;7.20;99.90
5639;DHT22;2841;44.526;11.360;2022-12-11T05:27:44;7.20;99.90
5639;DHT22;2841;44.526;11.360;2022-12-11T05:30:11;7.20;99.90
5639;DHT22;2841;44.526;11.360;2022-12-11T05:32:38;7.20;99.90
5639;DHT22;2841;44.526;11.360;2022-12-11T05:35:06;7.10;99.90
5639;DHT22;2841;44.526;11.360;2022-12-11T05:37:33;7.10;99.90
5639;DHT22;2841;44.526;11.360;2022-12-11T05:40:01;7.10;99.90
5639;DHT22;2841;44.526;11.360;2022-12-11T05:42:32;7.10;99.90
5639;DHT22;2841;44.526;11.360;2022-12-11T05:44:59;7.20;99.90
5639;DHT22;2841;44.526;11.360;2022-12-11T05:47:26;7.20;99.90
5639;DHT22;2841;44.526;11.360;2022-12-11T05:49:53;7.20;99.90
5639;DHT22;2841;44.526;11.360;2022-12-11T05:52:20;7.20;99.90
5639;DHT22;2841;44.526;11.360;2022-12-11T05:54:47;7.30;99.90
5639;DHT22;2841;44.526;11.360;2022-12-11T05:57:15;7.20;99.90
5639;DHT22;2841;44.526;11.360;2022-12-11T05:59:43;7.20;99.90
5639;DHT22;2841;44.526;11.360;2022-12-11T06:04:59;7.20;99.90
5639;DHT22;2841;44.526;11.360;2022-12-11T06:07:26;7.20;99.90
5639;DHT22;2841;44.526;11.360;2022-12-11T06:09:53;7.20;99.90
5639;DHT22;2841;44.526;11.360;2022-12-11T06:12:20;7.20;99.90
5639;DHT22;2841;44.526;11.360;2022-12-11T06:14:48;7.20;99.90
5639;DHT22;2841;44.526;11.360;2022-12-11T06:17:15;7.10;99.90
5639;DHT22;2841;44.526;11.360;2022-12-11T06:19:42;7.10;99.90
5639;DHT22;2841;44.526;11.360;2022-12-11T06:22:09;7.00;99.90
5639;DHT22;2841;44.526;11.360;2022-12-11T06:24:37;7.10;99.90
5639;DHT22;2841;44.526;11.360;2022-12-11T06:27:04;7.10;99.90
5639;DHT22;2841;44.526;11.360;2022-12-11T06:29:32;7.00;99.90
5639;DHT22;2841;44.526;11.360;2022-12-11T06:32:00;7.00;99.90
5639;DHT22;2841;44.526;11.360;2022-12-11T06:34:27;6.90;99.90
5639;DHT22;2841;44.526;11.360;2022-12-11T06:36:54;6.90;99.90
5639;DHT22;2841;44.526;11.360;2022-12-11T06:39:21;6.90;99.90
5639;DHT22;2841;44.526;11.360;2022-12-11T06:41:48;6.90;99.90
5639;DHT22;2841;44.526;11.360;2022-12-11T06:44:15;6.90;99.90
5639;DHT22;2841;44.526;11.360;2022-12-11T06:46:42;6.80;99.90
5639;DHT22;2841;44.526;11.360;2022-12-11T06:49:11;6.80;99.90
5639;DHT22;2841;44.526;11.360;2022-12-11T06:51:38;6.70;99.90
5639;DHT22;2841;44.526;11.360;2022-12-11T06:54:05;6.70;99.90
5639;DHT22;2841;44.526;11.360;2022-12-11T06:56:33;6.70;99.90
5639;DHT22;2841;44.526;11.360;2022-12-11T06:59:00;6.50;99.90
5639;DHT22;2841;44.526;11.360;2022-12-11T07:01:28;6.40;99.90
5639;DHT22;2841;44.526;11.360;2022-12-11T07:03:56;6.30;99.90
5639;DHT22;2841;44.526;11.360;2022-12-11T07:06:26;6.30;99.90
5639;DHT22;2841;44.526;11.360;2022-12-11T07:08:54;6.30;99.90
5639;DHT22;2841;44.526;11.360;2022-12-11T07:11:22;6.20;99.90
5639;DHT22;2841;44.526;11.360;2022-12-11T07:13:49;6.30;99.90
5639;DHT22;2841;44.526;11.360;2022-12-11T07:16:17;6.20;99.90
5639;DHT22;2841;44.526;11.360;2022-12-11T07:18:46;6.20;99.90
5639;DHT22;2841;44.526;11.360;2022-12-11T07:21:14;6.20;99.90
5639;DHT22;2841;44.526;11.360;2022-12-11T07:23:43;6.10;99.90
5639;DHT22;2841;44.526;11.360;2022-12-11T07:26:12;6.00;99.90
5639;DHT22;2841;44.526;11.360;2022-12-11T07:28:39;5.90;99.90
5639;DHT22;2841;44.526;11.360;2022-12-11T07:31:07;5.90;99.90
5639;DHT22;2841;44.526;11.360;2022-12-11T07:33:35;5.90;99.90
5639;DHT22;2841;44.526;11.360;2022-12-11T07:36:03;5.80;99.90
5639;DHT22;2841;44.526;11.360;2022-12-11T07:38:31;5.70;99.90
5639;DHT22;2841;44.526;11.360;2022-12-11T07:41:01;5.70;99.90
5639;DHT22;2841;44.526;11.360;2022-12-11T07:43:29;5.70;99.90
5639;DHT22;2841;44.526;11.360;2022-12-11T07:46:00;5.70;99.90
5639;DHT22;2841;44.526;11.360;2022-12-11T07:48:28;5.80;99.90
5639;DHT22;2841;44.526;11.360;2022-12-11T07:50:56;5.80;99.90
5639;DHT22;2841;44.526;11.360;2022-12-11T07:53:32;5.80;99.90
5639;DHT22;2841;44.526;11.360;2022-12-11T07:56:01;5.70;99.90
5639;DHT22;2841;44.526;11.360;2022-12-11T07:58:28;5.80;99.90
5639;DHT22;2841;44.526;11.360;2022-12-11T08:00:57;5.70;99.90
5639;DHT22;2841;44.526;11.360;2022-12-11T08:03:24;5.60;99.90
5639;DHT22;2841;44.526;11.360;2022-12-11T08:05:51;5.60;99.90
5639;DHT22;2841;44.526;11.360;2022-12-11T08:08:19;5.50;99.90
5639;DHT22;2841;44.526;11.360;2022-12-11T08:10:46;5.50;99.90
5639;DHT22;2841;44.526;11.360;2022-12-11T08:13:14;5.40;99.90
5639;DHT22;2841;44.526;11.360;2022-12-11T08:15:41;5.40;99.90
5639;DHT22;2841;44.526;11.360;2022-12-11T08:18:09;5.40;99.90
5639;DHT22;2841;44.526;11.360;2022-12-11T08:20:37;5.30;99.90
5639;DHT22;2841;44.526;11.360;2022-12-11T08:23:04;5.20;99.90
5639;DHT22;2841;44.526;11.360;2022-12-11T08:25:31;5.10;99.90
5639;DHT22;2841;44.526;11.360;2022-12-11T08:27:58;5.10;99.90
5639;DHT22;2841;44.526;11.360;2022-12-11T08:30:26;5.10;99.90
5639;DHT22;2841;44.526;11.360;2022-12-11T08:32:53;5.00;99.90
5639;DHT22;2841;44.526;11.360;2022-12-11T08:35:20;4.90;99.90
5639;DHT22;2841;44.526;11.360;2022-12-11T08:37:47;4.90;99.90
5639;DHT22;2841;44.526;11.360;2022-12-11T08:40:14;4.80;99.90
5639;DHT22;2841;44.526;11.360;2022-12-11T08:42:41;4.70;99.90
5639;DHT22;2841;44.526;11.360;2022-12-11T08:45:09;4.70;99.90
5639;DHT22;2841;44.526;11.360;2022-12-11T08:47:38;4.70;99.90
5639;DHT22;2841;44.526;11.360;2022-12-11T08:50:05;4.70;99.90
5639;DHT22;2841;44.526;11.360;2022-12-11T08:52:34;4.70;99.90
5639;DHT22;2841;44.526;11.360;2022-12-11T08:55:05;4.70;99.90
5639;DHT22;2841;44.526;11.360;2022-12-11T08:57:32;4.70;99.90
5639;DHT22;2841;44.526;11.360;2022-12-11T08:59:59;4.70;99.90
5639;DHT22;2841;44.526;11.360;2022-12-11T09:02:26;4.70;99.90
5639;DHT22;2841;44.526;11.360;2022-12-11T09:04:54;4.80;99.90
5639;DHT22;2841;44.526;11.360;2022-12-11T09:07:21;4.80;99.90
5639;DHT22;2841;44.526;11.360;2022-12-11T09:09:49;4.80;99.90
5639;DHT22;2841;44.526;11.360;2022-12-11T09:12:16;5.00;99.90
5639;DHT22;2841;44.526;11.360;2022-12-11T09:14:43;5.10;99.90
5639;DHT22;2841;44.526;11.360;2022-12-11T09:17:10;5.20;99.90
5639;DHT22;2841;44.526;11.360;2022-12-11T09:19:37;5.30;99.90
5639;DHT22;2841;44.526;11.360;2022-12-11T09:22:05;5.30;99.90
5639;DHT22;2841;44.526;11.360;2022-12-11T09:24:34;5.40;99.90
5639;DHT22;2841;44.526;11.360;2022-12-11T09:27:02;5.40;99.90
5639;DHT22;2841;44.526;11.360;2022-12-11T09:29:29;5.40;99.90
5639;DHT22;2841;44.526;11.360;2022-12-11T09:31:57;5.40;99.90
5639;DHT22;2841;44.526;11.360;2022-12-11T09:34:24;5.50;99.90
5639;DHT22;2841;44.526;11.360;2022-12-11T09:36:51;5.40;99.90
5639;DHT22;2841;44.526;11.360;2022-12-11T09:39:19;5.30;99.90
5639;DHT22;2841;44.526;11.360;2022-12-11T09:41:54;5.40;99.90
5639;DHT22;2841;44.526;11.360;2022-12-11T09:44:31;5.40;99.90
5639;DHT22;2841;44.526;11.360;2022-12-11T09:47:00;5.50;99.90
5639;DHT22;2841;44.526;11.360;2022-12-11T09:49:32;5.50;99.90
5639;DHT22;2841;44.526;11.360;2022-12-11T09:52:08;5.50;99.90
5639;DHT22;2841;44.526;11.360;2022-12-11T09:54:39;5.60;99.90
5639;DHT22;2841;44.526;11.360;2022-12-11T09:57:16;5.60;99.90
5639;DHT22;2841;44.526;11.360;2022-12-11T09:59:57;5.70;99.90
5639;DHT22;2841;44.526;11.360;2022-12-11T10:02:36;5.70;99.90
5639;DHT22;2841;44.526;11.360;2022-12-11T10:05:14;5.80;99.90
5639;DHT22;2841;44.526;11.360;2022-12-11T10:07:50;5.90;99.90
5639;DHT22;2841;44.526;11.360;2022-12-11T10:10:25;5.90;99.90
5639;DHT22;2841;44.526;11.360;2022-12-11T10:12:59;6.00;99.90
5639;DHT22;2841;44.526;11.360;2022-12-11T10:15:37;6.00;99.90
5639;DHT22;2841;44.526;11.360;2022-12-11T10:18:10;6.00;99.90
5639;DHT22;2841;44.526;11.360;2022-12-11T10:20:37;6.00;99.90
5639;DHT22;2841;44.526;11.360;2022-12-11T10:23:08;6.00;99.90
5639;DHT22;2841;44.526;11.360;2022-12-11T10:25:43;6.00;99.90
5639;DHT22;2841;44.526;11.360;2022-12-11T10:28:12;5.90;99.90
5639;DHT22;2841;44.526;11.360;2022-12-11T10:30:45;5.90;99.90
5639;DHT22;2841;44.526;11.360;2022-12-11T10:33:19;6.00;99.90
5639;DHT22;2841;44.526;11.360;2022-12-11T10:35:49;6.00;99.90
5639;DHT22;2841;44.526;11.360;2022-12-11T10:38:20;6.10;99.90
5639;DHT22;2841;44.526;11.360;2022-12-11T10:40:51;6.10;99.90
5639;DHT22;2841;44.526;11.360;2022-12-11T10:43:19;6.10;99.90
5639;DHT22;2841;44.526;11.360;2022-12-11T10:45:50;6.10;99.90
5639;DHT22;2841;44.526;11.360;2022-12-11T10:48:17;6.20;99.90
5639;DHT22;2841;44.526;11.360;2022-12-11T10:50:55;6.20;99.90
5639;DHT22;2841;44.526;11.360;2022-12-11T10:53:23;6.20;99.90
5639;DHT22;2841;44.526;11.360;2022-12-11T10:55:52;6.20;99.90
5639;DHT22;2841;44.526;11.360;2022-12-11T10:58:21;6.20;99.90
5639;DHT22;2841;44.526;11.360;2022-12-11T11:01:02;6.20;99.90
5639;DHT22;2841;44.526;11.360;2022-12-11T11:03:32;6.20;99.90
5639;DHT22;2841;44.526;11.360;2022-12-11T11:06:12;6.30;99.90
5639;DHT22;2841;44.526;11.360;2022-12-11T11:08:42;6.40;99.90
5639;DHT22;2841;44.526;11.360;2022-12-11T11:11:25;6.50;99.90
5639;DHT22;2841;44.526;11.360;2022-12-11T11:14:04;6.70;99.90
5639;DHT22;2841;44.526;11.360;2022-12-11T11:16:35;6.70;99.90
5639;DHT22;2841;44.526;11.360;2022-12-11T11:19:03;6.60;99.90
5639;DHT22;2841;44.526;11.360;2022-12-11T11:21:32;6.60;99.90
5639;DHT22;2841;44.526;11.360;2022-12-11T11:24:00;6.60;99.90
5639;DHT22;2841;44.526;11.360;2022-12-11T11:26:30;6.70;99.90
5639;DHT22;2841;44.526;11.360;2022-12-11T11:28:59;6.60;99.90
5639;DHT22;2841;44.526;11.360;2022-12-11T11:31:31;6.70;99.90
5639;DHT22;2841;44.526;11.360;2022-12-11T11:34:01;6.60;99.90
5639;DHT22;2841;44.526;11.360;2022-12-11T11:36:31;6.60;99.90
5639;DHT22;2841;44.526;11.360;2022-12-11T11:39:16;6.70;99.90
5639;DHT22;2841;44.526;11.360;2022-12-11T11:41:53;6.70;99.90
5639;DHT22;2841;44.526;11.360;2022-12-11T11:44:26;6.70;99.90
5639;DHT22;2841;44.526;11.360;2022-12-11T11:46:59;6.70;99.90
5639;DHT22;2841;44.526;11.360;2022-12-11T11:49:54;6.60;99.90
5639;DHT22;2841;44.526;11.360;2022-12-11T11:52:27;6.70;99.90
5639;DHT22;2841;44.526;11.360;2022-12-11T11:55:02;6.60;99.90
5639;DHT22;2841;44.526;11.360;2022-12-11T11:57:39;6.60;99.90
5639;DHT22;2841;44.526;11.360;2022-12-11T12:00:16;6.70;99.90
5639;DHT22;2841;44.526;11.360;2022-12-11T12:02:45;6.60;99.90
5639;DHT22;2841;44.526;11.360;2022-12-11T12:05:13;6.60;99.90
5639;DHT22;2841;44.526;11.360;2022-12-11T12:07:46;6.50;99.90
5639;DHT22;2841;44.526;11.360;2022-12-11T12:10:20;6.50;99.90
5639;DHT22;2841;44.526;11.360;2022-12-11T12:12:56;6.50;99.90
5639;DHT22;2841;44.526;11.360;2022-12-11T12:15:31;6.50;99.90
5639;DHT22;2841;44.526;11.360;2022-12-11T12:18:09;6.60;99.90
5639;DHT22;2841;44.526;11.360;2022-12-11T12:20:42;6.60;99.90
5639;DHT22;2841;44.526;11.360;2022-12-11T12:23:37;6.50;99.90
5639;DHT22;2841;44.526;11.360;2022-12-11T12:26:16;6.40;99.90
5639;DHT22;2841;44.526;11.360;2022-12-11T12:28:50;6.40;99.90
5639;DHT22;2841;44.526;11.360;2022-12-11T12:31:41;6.40;99.90
5639;DHT22;2841;44.526;11.360;2022-12-11T12:34:17;6.40;99.90
5639;DHT22;2841;44.526;11.360;2022-12-11T12:36:56;6.50;99.90
5639;DHT22;2841;44.526;11.360;2022-12-11T12:39:37;6.50;99.90
5639;DHT22;2841;44.526;11.360;2022-12-11T12:42:16;6.50;99.90
5639;DHT22;2841;44.526;11.360;2022-12-11T12:44:56;6.50;99.90
5639;DHT22;2841;44.526;11.360;2022-12-11T12:47:26;6.50;99.90
5639;DHT22;2841;44.526;11.360;2022-12-11T12:49:54;6.60;99.90
5639;DHT22;2841;44.526;11.360;2022-12-11T12:52:27;6.60;99.90
5639;DHT22;2841;44.526;11.360;2022-12-11T12:54:56;6.60;99.90
5639;DHT22;2841;44.526;11.360;2022-12-11T12:57:46;6.60;99.90
5639;DHT22;2841;44.526;11.360;2022-12-11T13:00:28;6.60;99.90
5639;DHT22;2841;44.526;11.360;2022-12-11T13:02:56;6.60;99.90
5639;DHT22;2841;44.526;11.360;2022-12-11T13:05:26;6.60;99.90
5639;DHT22;2841;44.526;11.360;2022-12-11T13:07:55;6.60;99.90
5639;DHT22;2841;44.526;11.360;2022-12-11T13:10:26;6.60;99.90
5639;DHT22;2841;44.526;11.360;2022-12-11T13:12:54;6.50;99.90
5639;DHT22;2841;44.526;11.360;2022-12-11T13:15:28;6.50;99.90
5639;DHT22;2841;44.526;11.360;2022-12-11T13:17:56;6.50;99.90
5639;DHT22;2841;44.526;11.360;2022-12-11T13:20:25;6.50;99.90
5639;DHT22;2841;44.526;11.360;2022-12-11T13:23:09;6.40;99.90
5639;DHT22;2841;44.526;11.360;2022-12-11T13:25:52;6.40;99.90
5639;DHT22;2841;44.526;11.360;2022-12-11T13:28:23;6.40;99.90
5639;DHT22;2841;44.526;11.360;2022-12-11T13:31:02;6.50;99.90
5639;DHT22;2841;44.526;11.360;2022-12-11T13:33:31;6.50;99.90
5639;DHT22;2841;44.526;11.360;2022-12-11T13:36:16;6.50;99.90
5639;DHT22;2841;44.526;11.360;2022-12-11T13:38:47;6.50;99.90
5639;DHT22;2841;44.526;11.360;2022-12-11T13:41:14;6.50;99.90
5639;DHT22;2841;44.526;11.360;2022-12-11T13:43:45;6.50;99.90
5639;DHT22;2841;44.526;11.360;2022-12-11T13:46:18;6.50;99.90
5639;DHT22;2841;44.526;11.360;2022-12-11T13:48:47;6.50;99.90
5639;DHT22;2841;44.526;11.360;2022-12-11T13:51:18;6.50;99.90
5639;DHT22;2841;44.526;11.360;2022-12-11T13:53:46;6.50;99.90
5639;DHT22;2841;44.526;11.360;2022-12-11T13:56:16;6.50;99.90
5639;DHT22;2841;44.526;11.360;2022-12-11T13:58:44;6.50;99.90
5639;DHT22;2841;44.526;11.360;2022-12-11T14:01:15;6.50;99.90
5639;DHT22;2841;44.526;11.360;2022-12-11T14:03:49;6.50;99.90
5639;DHT22;2841;44.526;11.360;2022-12-11T14:06:18;6.50;99.90
5639;DHT22;2841;44.526;11.360;2022-12-11T14:08:48;6.50;99.90
5639;DHT22;2841;44.526;11.360;2022-12-11T14:11:20;6.50;99.90
5639;DHT22;2841;44.526;11.360;2022-12-11T14:13:48;6.50;99.90
5639;DHT22;2841;44.526;11.360;2022-12-11T14:16:20;6.50;99.90
5639;DHT22;2841;44.526;11.360;2022-12-11T14:18:48;6.50;99.90
5639;DHT22;2841;44.526;11.360;2022-12-11T14:21:18;6.50;99.90
5639;DHT22;2841;44.526;11.360;2022-12-11T14:23:52;6.50;99.90
5639;DHT22;2841;44.526;11.360;2022-12-11T14:26:21;6.50;99.90
5639;DHT22;2841;44.526;11.360;2022-12-11T14:28:49;6.40;99.90
5639;DHT22;2841;44.526;11.360;2022-12-11T14:31:24;6.40;99.90
5639;DHT22;2841;44.526;11.360;2022-12-11T14:33:56;6.40;99.90
5639;DHT22;2841;44.526;11.360;2022-12-11T14:36:27;6.30;99.90
5639;DHT22;2841;44.526;11.360;2022-12-11T14:38:58;6.30;99.90
5639;DHT22;2841;44.526;11.360;2022-12-11T14:41:33;6.20;99.90
5639;DHT22;2841;44.526;11.360;2022-12-11T14:44:04;6.20;99.90
5639;DHT22;2841;44.526;11.360;2022-12-11T14:46:36;6.20;99.90
5639;DHT22;2841;44.526;11.360;2022-12-11T14:49:07;6.10;99.90
5639;DHT22;2841;44.526;11.360;2022-12-11T14:51:40;6.00;99.90
5639;DHT22;2841;44.526;11.360;2022-12-11T14:54:25;6.00;99.90
5639;DHT22;2841;44.526;11.360;2022-12-11T14:56:53;6.00;99.90
5639;DHT22;2841;44.526;11.360;2022-12-11T14:59:22;6.00;99.90
5639;DHT22;2841;44.526;11.360;2022-12-11T15:02:01;6.00;99.90
5639;DHT22;2841;44.526;11.360;2022-12-11T15:04:30;6.00;99.90
5639;DHT22;2841;44.526;11.360;2022-12-11T15:06:58;6.00;99.90
5639;DHT22;2841;44.526;11.360;2022-12-11T15:09:27;6.00;99.90
5639;DHT22;2841;44.526;11.360;2022-12-11T15:11:56;5.90;99.90
5639;DHT22;2841;44.526;11.360;2022-12-11T15:14:24;5.90;99.90
5639;DHT22;2841;44.526;11.360;2022-12-11T15:16:55;5.90;99.90
5639;DHT22;2841;44.526;11.360;2022-12-11T15:19:29;5.90;99.90
5639;DHT22;2841;44.526;11.360;2022-12-11T15:22:02;6.00;99.90
5639;DHT22;2841;44.526;11.360;2022-12-11T15:24:34;5.90;99.90
5639;DHT22;2841;44.526;11.360;2022-12-11T15:27:03;5.90;99.90
5639;DHT22;2841;44.526;11.360;2022-12-11T15:29:33;5.90;99.90
5639;DHT22;2841;44.526;11.360;2022-12-11T15:32:02;5.90;99.90
5639;DHT22;2841;44.526;11.360;2022-12-11T15:34:40;5.90;99.90
5639;DHT22;2841;44.526;11.360;2022-12-11T15:37:17;5.80;99.90
5639;DHT22;2841;44.526;11.360;2022-12-11T15:39:44;5.80;99.90
5639;DHT22;2841;44.526;11.360;2022-12-11T15:42:14;5.80;99.90
5639;DHT22;2841;44.526;11.360;2022-12-11T15:44:42;5.70;99.90
5639;DHT22;2841;44.526;11.360;2022-12-11T15:47:12;5.70;99.90
5639;DHT22;2841;44.526;11.360;2022-12-11T15:49:41;5.70;99.90
5639;DHT22;2841;44.526;11.360;2022-12-11T15:52:08;5.70;99.90
5639;DHT22;2841;44.526;11.360;2022-12-11T15:54:35;5.80;99.90
5639;DHT22;2841;44.526;11.360;2022-12-11T15:57:04;5.80;99.90
5639;DHT22;2841;44.526;11.360;2022-12-11T15:59:33;5.80;99.90
5639;DHT22;2841;44.526;11.360;2022-12-11T16:02:00;5.80;99.90
5639;DHT22;2841;44.526;11.360;2022-12-11T16:04:27;5.70;99.90
5639;DHT22;2841;44.526;11.360;2022-12-11T16:06:55;5.70;99.90
5639;DHT22;2841;44.526;11.360;2022-12-11T16:09:22;5.60;99.90
5639;DHT22;2841;44.526;11.360;2022-12-11T16:11:49;5.60;99.90
5639;DHT22;2841;44.526;11.360;2022-12-11T16:14:16;5.60;99.90
5639;DHT22;2841;44.526;11.360;2022-12-11T16:16:43;5.60;99.90
5639;DHT22;2841;44.526;11.360;2022-12-11T16:19:10;5.60;99.90
5639;DHT22;2841;44.526;11.360;2022-12-11T16:21:37;5.60;99.90
5639;DHT22;2841;44.526;11.360;2022-12-11T16:24:06;5.60;99.90
5639;DHT22;2841;44.526;11.360;2022-12-11T16:26:33;5.60;99.90